ADDS METAR Data INFO
IDs: Format: Raw Decoded Include TAF

Data at: 0901 UTC 20 Oct 2017

KHJO 200853Z AUTO 00000KT 10SM BKN070 17/12 A2993 RMK AO2 SLP134 T01670117 50010
KHJO 200753Z AUTO 33008KT 10SM BKN065 OVC080 17/12 A2993 RMK AO2 SLP135 T01720117 402830067
KHJO 200653Z AUTO 32012KT 10SM OVC075 17/12 A2992 RMK AO2 SLP132 T01720117
KHJO 200553Z AUTO 33011KT 6SM HZ FEW075 17/12 A2989 RMK AO2 SLP124 T01670117 10278 20156 51017
KHJO 200453Z AUTO 33009KT 10SM CLR 17/11 A2988 RMK AO2 SLP119 T01720111
KHJO 200353Z AUTO 34007KT 8SM CLR 21/06 A2986 RMK AO2 SLP113 T02060061
KHJO 200253Z AUTO 06004KT 6SM HZ CLR 17/07 A2984 RMK AO2 SLP107 T01670072 55004
KHJO 200153Z AUTO 32003KT 7SM CLR 20/07 A2984 RMK AO2 SLP106 T02000067
KHJO 200053Z AUTO 02003KT 6SM HZ CLR 25/04 A2984 RMK AO2 SLP105 T02500044
KHJO 192353Z AUTO 00000KT 7SM CLR 28/02 A2985 RMK AO2 SLP110 T02780022 10283 20194 56017
KHJO 192253Z AUTO 07004KT 6SM HZ CLR 28/02 A2987 RMK AO2 SLP116 T02780022
KHJO 192153Z AUTO 06004KT 6SM HZ CLR 27/01 A2988 RMK AO2 SLP120 T02720011
KHJO 192053Z AUTO 00000KT 7SM CLR 27/03 A2990 RMK AO2 SLP127 T02670028 58023
KHJO 191953Z AUTO 30004KT 7SM CLR 26/02 A2994 RMK AO2 SLP139 T02560022
KHJO 191853Z AUTO 28004KT 5SM HZ CLR 23/04 A2996 RMK AO2 SLP147 T02280044
KHJO 191753Z AUTO 21003KT 4SM HZ CLR 19/06 A2997 RMK AO2 SLP150 T01940061 10194 20067 50001
KHJO 191653Z AUTO 23003KT 4SM HZ CLR 16/06 A2998 RMK AO2 SLP154 T01610061 $
KHJO 191553Z AUTO 00000KT 4SM HZ CLR 12/07 A2998 RMK AO2 SLP155 T01220067 $
KHJO 191526Z AUTO 00000KT 3SM HZ FEW003 10/07 A2998 RMK AO2 T01000067 $
KHJO 191453Z AUTO 00000KT 4SM HZ CLR 08/05 A2997 RMK AO2 SLP151 T00780050 53008
KHJO 191353Z AUTO 06003KT 5SM BR CLR 07/05 A2997 RMK AO2 SLP150 T00670050
KHJO 191253Z AUTO 27003KT 6SM HZ CLR 08/04 A2995 RMK AO2 SLP142 T00830044
KHJO 191153Z AUTO 26004KT 6SM HZ CLR 09/05 A2995 RMK AO2 SLP141 T00890050 10161 20083 55003
KHJO 191053Z AUTO 25003KT 6SM HZ CLR 09/06 A2993 RMK AO2 SLP135 T00940056
KHJO 190953Z AUTO 34006KT 7SM CLR 15/04 A2994 RMK AO2 SLP141 T01500039
KHJO 190853Z AUTO 32003KT 6SM HZ CLR 12/06 A2996 RMK AO2 SLP145 T01220056 53001
KHJO 190753Z AUTO 34004KT 6SM HZ CLR 15/06 A2995 RMK AO2 SLP141 T01500061 402890117
KHJO 190653Z AUTO 32004KT 6SM HZ CLR 15/08 A2995 RMK AO2 SLP144 T01500078
KHJO 190553Z AUTO 31003KT 5SM HZ CLR 14/09 A2995 RMK AO2 SLP144 T01390094 10278 20133 53002
KHJO 190453Z AUTO 00000KT 6SM HZ CLR 15/09 A2995 RMK AO2 SLP143 T01500094
KHJO 190353Z AUTO 30003KT 6SM HZ CLR 18/09 A2995 RMK AO2 SLP143 T01780094
KHJO 190253Z AUTO 28003KT 6SM HZ CLR 18/09 A2995 RMK AO2 SLP142 T01780089 53003
KHJO 190153Z AUTO 31003KT 6SM HZ CLR 20/09 A2994 RMK AO2 SLP140 T02000094
KHJO 190053Z AUTO 33004KT 5SM HZ CLR 24/09 A2994 RMK AO2 SLP138 T02440089
KHJO 182353Z AUTO 32005KT 5SM HZ CLR 28/07 A2994 RMK AO2 SLP139 T02780072 10289 20222 56016
KHJO 182253Z AUTO VRB03KT 5SM HZ CLR 29/07 A2995 RMK AO2 SLP140 T02890067
KHJO 182153Z AUTO VRB03KT 5SM HZ CLR 28/07 A2996 RMK AO2 SLP145 T02780072